Time;durP1;ratioP1;P1;durP2;ratioP2;P2;SDS_P1;SDS_P2;PMS_P1;PMS_P2;Temp;Humidity;BMP_temperature;BMP_pressure;BME280_temperature;BME280_humidity;BME280_pressure;Samples;Min_cycle;Max_cycle;Signal;HPM_P1;HPM_P2
2023/07/15 00:01:34;;;;;;;;;;;;;;;15.30;73.78;101390.23;108348;1261;124928;-85
2023/07/15 00:04:01;;;;;;;;;;;;;;;15.30;73.81;101390.05;108341;1262;74716;-85
2023/07/15 00:06:28;;;;;;;;;;;;;;;15.31;73.93;101390.05;108416;1262;67566;-85
2023/07/15 00:08:55;;;;;;;;;;;;;;;15.32;73.93;101392.91;108419;1262;124789;-85
2023/07/15 00:11:30;;;;;;;;;;;;;;;15.34;74.00;101395.06;108376;1262;59075;-85
2023/07/15 00:13:57;;;;;;;;;;;;;;;15.35;74.05;101393.30;108325;1260;124823;-85
2023/07/15 00:16:25;;;;;;;;;;;;;;;15.38;74.01;101390.35;108505;1262;75427;-85
2023/07/15 00:18:52;;;;;;;;;;;;;;;15.38;74.08;101388.94;108295;1262;125471;-85
2023/07/15 00:21:20;;;;;;;;;;;;;;;15.41;74.07;101387.37;108279;1262;73136;-83
2023/07/15 00:23:48;;;;;;;;;;;;;;;15.42;74.03;101384.22;108388;1267;59948;-85
2023/07/15 00:26:15;;;;;;;;;;;;;;;15.44;74.09;101379.12;108459;1260;124818;-85
2023/07/15 00:28:42;;;;;;;;;;;;;;;15.46;74.02;101381.63;108489;1261;75093;-85
2023/07/15 00:31:13;;;;;;;;;;;;;;;15.48;74.10;101375.46;108480;1260;125325;-84
2023/07/15 00:33:40;;;;;;;;;;;;;;;15.49;74.04;101380.96;108408;1262;73237;-84
2023/07/15 00:36:08;;;;;;;;;;;;;;;15.48;73.98;101380.23;108389;1262;59512;-85
2023/07/15 00:38:35;;;;;;;;;;;;;;;15.48;73.94;101375.64;108313;1262;125341;-85
2023/07/15 00:41:02;;;;;;;;;;;;;;;15.48;73.95;101371.02;108430;1263;74653;-85
2023/07/15 00:43:47;;;;;;;;;;;;;;;15.45;73.91;101373.66;108387;1264;125192;-85
2023/07/15 00:46:18;;;;;;;;;;;;;;;15.41;73.92;101373.24;108576;1262;72675;-85
2023/07/15 00:48:51;;;;;;;;;;;;;;;15.38;73.97;101377.78;108555;1262;59274;-85
2023/07/15 00:51:19;;;;;;;;;;;;;;;15.35;73.99;101375.80;108545;1262;59154;-84
2023/07/15 00:53:46;;;;;;;;;;;;;;;15.31;73.97;101372.56;108428;1260;76301;-84
2023/07/15 00:56:13;;;;;;;;;;;;;;;15.28;73.96;101372.16;108476;1262;125087;-84
2023/07/15 00:58:40;;;;;;;;;;;;;;;15.25;74.09;101376.17;108346;1262;72746;-84
2023/07/15 01:01:10;;;;;;;;;;;;;;;15.22;74.15;101382.33;108429;1266;125046;-84
2023/07/15 01:03:39;;;;;;;;;;;;;;;15.20;74.14;101376.98;108551;1262;59132;-84
2023/07/15 01:06:07;;;;;;;;;;;;;;;15.15;74.25;101378.84;108461;1262;74830;-84
2023/07/15 01:08:34;;;;;;;;;;;;;;;15.12;74.21;101381.63;108347;1262;125121;-85
2023/07/15 01:11:01;;;;;;;;;;;;;;;15.10;74.27;101380.52;108527;1262;72744;-84
2023/07/15 01:13:27;;;;;;;;;;;;;;;15.07;74.35;101382.27;108585;1262;59325;-85
2023/07/15 01:15:55;;;;;;;;;;;;;;;15.05;74.28;101383.08;108577;1262;59318;-84
2023/07/15 01:18:22;;;;;;;;;;;;;;;15.02;74.26;101380.23;108554;1262;73851;-85
2023/07/15 01:20:50;;;;;;;;;;;;;;;14.99;74.37;101384.23;108377;1262;124822;-84
2023/07/15 01:23:17;;;;;;;;;;;;;;;14.96;74.43;101384.90;108442;1262;71495;-84
2023/07/15 01:25:44;;;;;;;;;;;;;;;14.95;74.49;101382.05;108354;1262;124892;-85
2023/07/15 01:28:11;;;;;;;;;;;;;;;14.92;74.46;101378.81;108460;1265;60608;-84
2023/07/15 01:30:38;;;;;;;;;;;;;;;14.89;74.58;101378.23;108608;1262;74159;-85
2023/07/15 01:33:05;;;;;;;;;;;;;;;14.86;74.54;101381.71;108427;1262;125545;-85
2023/07/15 01:35:32;;;;;;;;;;;;;;;14.84;74.63;101388.23;108526;1264;72693;-85
2023/07/15 01:37:59;;;;;;;;;;;;;;;14.83;74.86;101385.53;108344;1262;124955;-85
2023/07/15 01:40:27;;;;;;;;;;;;;;;14.81;74.84;101381.27;108495;1262;60242;-85
2023/07/15 01:42:53;;;;;;;;;;;;;;;14.79;74.88;101381.94;108315;1261;76065;-85
2023/07/15 01:45:20;;;;;;;;;;;;;;;14.78;74.90;101376.79;108254;1263;125175;-85
2023/07/15 01:47:47;;;;;;;;;;;;;;;14.76;74.91;101374.47;108334;1264;71500;-85
2023/07/15 01:50:14;;;;;;;;;;;;;;;14.76;75.10;101373.23;108262;1262;125783;-85
2023/07/15 01:52:41;;;;;;;;;;;;;;;14.77;75.24;101371.13;108465;1264;60098;-84
2023/07/15 01:55:08;;;;;;;;;;;;;;;14.80;75.41;101370.49;108366;1264;125746;-85
2023/07/15 01:57:35;;;;;;;;;;;;;;;14.83;75.16;101366.81;108365;1262;67032;-85
2023/07/15 02:00:05;;;;;;;;;;;;;;;14.86;75.28;101367.76;108339;1263;71899;-85
2023/07/15 02:02:32;;;;;;;;;;;;;;;14.88;75.28;101367.27;108296;1264;124705;-84
2023/07/15 02:04:59;;;;;;;;;;;;;;;14.89;75.30;101369.59;108534;1264;60121;-84
2023/07/15 02:07:25;;;;;;;;;;;;;;;14.91;75.27;101369.60;108461;1262;124986;-85
2023/07/15 02:09:52;;;;;;;;;;;;;;;14.91;75.14;101369.27;108533;1263;66268;-84
2023/07/15 02:12:20;;;;;;;;;;;;;;;14.90;75.14;101368.20;108349;1262;72112;-84
2023/07/15 02:14:47;;;;;;;;;;;;;;;14.91;75.17;101370.49;108367;1262;124986;-84
2023/07/15 02:17:17;;;;;;;;;;;;;;;14.92;75.11;101366.96;108488;1266;59357;-85
2023/07/15 02:19:44;;;;;;;;;;;;;;;14.89;75.06;101365.85;108315;1262;124804;-84
2023/07/15 02:22:11;;;;;;;;;;;;;;;14.88;75.12;101364.42;108544;1262;65880;-84
2023/07/15 02:24:38;;;;;;;;;;;;;;;14.89;75.15;101363.92;108392;1264;72722;-85
2023/07/15 02:27:04;;;;;;;;;;;;;;;14.89;75.23;101362.86;108406;1265;124872;-85
2023/07/15 02:29:31;;;;;;;;;;;;;;;14.90;75.13;101363.58;108499;1263;59283;-84
2023/07/15 02:31:58;;;;;;;;;;;;;;;14.90;75.15;101359.16;108436;1264;125257;-85
2023/07/15 02:34:25;;;;;;;;;;;;;;;14.91;75.09;101361.30;108530;1262;66393;-84
2023/07/15 02:36:53;;;;;;;;;;;;;;;14.93;75.22;101363.64;108406;1262;72734;-85
2023/07/15 02:39:20;;;;;;;;;;;;;;;14.97;75.30;101364.41;108456;1262;125125;-84
2023/07/15 02:41:47;;;;;;;;;;;;;;;15.02;75.25;101365.38;108406;1262;59972;-85
2023/07/15 02:44:15;;;;;;;;;;;;;;;15.08;75.30;101364.94;108510;1262;125135;-84
2023/07/15 02:46:42;;;;;;;;;;;;;;;15.13;75.19;101369.27;108424;1262;65759;-84
2023/07/15 02:49:09;;;;;;;;;;;;;;;15.21;75.20;101367.27;108451;1261;124923;-84
2023/07/15 02:51:36;;;;;;;;;;;;;;;15.29;75.17;101365.10;108503;1262;59291;-84
2023/07/15 02:54:02;;;;;;;;;;;;;;;15.39;75.15;101362.79;108445;1261;59130;-85
2023/07/15 02:56:29;;;;;;;;;;;;;;;15.50;75.01;101360.10;108447;1262;124964;-84
2023/07/15 02:58:56;;;;;;;;;;;;;;;15.62;74.94;101362.23;108483;1262;66742;-84
2023/07/15 03:01:23;;;;;;;;;;;;;;;15.74;74.82;101360.46;108491;1262;125351;-84
2023/07/15 03:03:50;;;;;;;;;;;;;;;15.85;74.66;101357.42;108620;1264;60144;-84
2023/07/15 03:06:17;;;;;;;;;;;;;;;15.95;74.48;101358.45;108592;1262;59522;-84
2023/07/15 03:08:44;;;;;;;;;;;;;;;16.04;74.27;101356.61;108465;1262;124811;-85
2023/07/15 03:11:11;;;;;;;;;;;;;;;16.14;74.17;101353.36;108613;1264;66385;-84
2023/07/15 03:13:38;;;;;;;;;;;;;;;16.24;73.85;101351.89;108469;1261;125396;-85
2023/07/15 03:16:05;;;;;;;;;;;;;;;16.35;73.88;101355.37;108376;1268;59605;-85
2023/07/15 03:18:32;;;;;;;;;;;;;;;16.46;73.70;101353.02;108411;1262;60189;-85
2023/07/15 03:20:59;;;;;;;;;;;;;;;16.60;73.65;101353.15;108421;1262;124982;-85
2023/07/15 03:23:27;;;;;;;;;;;;;;;16.77;73.50;101348.36;108501;1262;66226;-85
2023/07/15 03:25:54;;;;;;;;;;;;;;;17.00;73.43;101346.45;108330;1262;124519;-85
2023/07/15 03:28:21;;;;;;;;;;;;;;;17.23;73.20;101339.01;108604;1262;59001;-85
2023/07/15 03:30:48;;;;;;;;;;;;;;;17.49;72.92;101335.27;108582;1262;59250;-85
2023/07/15 03:33:15;;;;;;;;;;;;;;;17.78;72.70;101329.40;108348;1262;124220;-85
2023/07/15 03:35:45;;;;;;;;;;;;;;;18.53;73.62;101326.08;108598;1262;65794;-85
2023/07/15 03:38:12;;;;;;;;;;;;;;;19.84;73.61;101323.27;108352;1262;124220;-85
2023/07/15 03:40:39;;;;;;;;;;;;;;;21.01;72.22;101323.63;108639;1262;59566;-85
2023/07/15 03:43:06;;;;;;;;;;;;;;;21.75;70.01;101318.08;108487;1262;124737;-85
2023/07/15 03:45:33;;;;;;;;;;;;;;;21.89;68.01;101316.11;108575;1262;73385;-85
2023/07/15 03:48:00;;;;;;;;;;;;;;;22.28;68.14;101317.73;108596;1261;65918;-85
2023/07/15 03:50:27;;;;;;;;;;;;;;;22.93;66.88;101314.23;108327;1262;124838;-85
2023/07/15 03:52:54;;;;;;;;;;;;;;;23.14;65.27;101317.65;108553;1265;59336;-85
2023/07/15 03:55:21;;;;;;;;;;;;;;;23.17;64.25;101316.86;108331;1262;124677;-85
2023/07/15 03:57:48;;;;;;;;;;;;;;;23.50;64.35;101316.61;108567;1262;74687;-85
2023/07/15 04:00:17;;;;;;;;;;;;;;;24.46;64.21;101320.48;108586;1262;65666;-85
2023/07/15 04:02:49;;;;;;;;;;;;;;;25.34;62.52;101322.61;108459;1262;124491;-85
2023/07/15 04:05:16;;;;;;;;;;;;;;;25.77;60.71;101321.06;108384;1264;59036;-85
2023/07/15 04:07:44;;;;;;;;;;;;;;;26.07;59.93;101315.70;108280;1264;124330;-85
2023/07/15 04:10:11;;;;;;;;;;;;;;;26.86;59.39;101318.74;108480;1262;73190;-85
2023/07/15 04:12:38;;;;;;;;;;;;;;;27.80;58.30;101315.63;108562;1266;67363;-85
2023/07/15 04:15:05;;;;;;;;;;;;;;;28.56;56.51;101315.04;108444;1262;123980;-85
2023/07/15 04:17:32;;;;;;;;;;;;;;;28.50;54.43;101311.66;108547;1262;59553;-85
2023/07/15 04:20:00;;;;;;;;;;;;;;;28.10;53.56;101313.95;108460;1262;124043;-85
2023/07/15 04:22:26;;;;;;;;;;;;;;;28.04;53.32;101316.36;108408;1262;74845;-85
2023/07/15 04:24:53;;;;;;;;;;;;;;;28.10;52.87;101306.38;108351;1262;67024;-85
2023/07/15 04:27:20;;;;;;;;;;;;;;;28.18;52.23;101307.33;108370;1265;123998;-85
2023/07/15 04:29:47;;;;;;;;;;;;;;;28.41;51.96;101307.48;108555;1262;59149;-85
2023/07/15 04:32:14;;;;;;;;;;;;;;;29.23;51.83;101309.29;108456;1262;124545;-85
2023/07/15 04:34:41;;;;;;;;;;;;;;;30.36;50.87;101309.89;108610;1262;66068;-85
2023/07/15 04:37:08;;;;;;;;;;;;;;;31.44;49.57;101315.05;108536;1262;124187;-85
2023/07/15 04:39:35;;;;;;;;;;;;;;;32.37;48.22;101314.34;108628;1262;63883;-86
2023/07/15 04:42:02;;;;;;;;;;;;;;;33.42;46.95;101312.52;108605;1263;59082;-83
2023/07/15 04:44:30;;;;;;;;;;;;;;;34.50;45.76;101309.78;108467;1262;124161;-84
2023/07/15 04:46:57;;;;;;;;;;;;;;;35.68;44.52;101312.05;108469;1262;65864;-84
2023/07/15 04:49:24;;;;;;;;;;;;;;;36.72;42.66;101317.39;108510;1262;124323;-84
2023/07/15 04:51:53;;;;;;;;;;;;;;;37.51;41.42;101313.77;108591;1262;63844;-84
2023/07/15 04:54:19;;;;;;;;;;;;;;;38.30;40.24;101311.67;108618;1262;59331;-84
2023/07/15 04:56:47;;;;;;;;;;;;;;;39.22;38.94;101313.75;108437;1261;124120;-84
2023/07/15 04:59:14;;;;;;;;;;;;;;;40.16;37.80;101318.75;108579;1262;64795;-84
2023/07/15 05:01:41;;;;;;;;;;;;;;;41.05;36.43;101311.61;108491;1266;125417;-84
2023/07/15 05:04:08;;;;;;;;;;;;;;;41.40;34.85;101309.97;108609;1262;64147;-84
2023/07/15 05:06:35;;;;;;;;;;;;;;;41.70;34.02;101310.70;108541;1262;59186;-85
2023/07/15 05:09:04;;;;;;;;;;;;;;;41.70;32.96;101310.01;108329;1262;124865;-84
2023/07/15 05:11:31;;;;;;;;;;;;;;;40.87;32.04;101308.52;108328;1262;66666;-84
2023/07/15 05:13:58;;;;;;;;;;;;;;;40.09;32.07;101309.38;108449;1264;124436;-85
2023/07/15 05:16:26;;;;;;;;;;;;;;;39.58;32.05;101308.78;108509;1261;62805;-85
2023/07/15 05:18:53;;;;;;;;;;;;;;;39.64;32.11;101304.71;108473;1262;59221;-85
2023/07/15 05:21:30;;;;;;;;;;;;;;;40.24;31.88;101306.69;108453;1262;124143;-86
2023/07/15 05:23:58;;;;;;;;;;;;;;;40.77;31.20;101308.40;108575;1260;65991;-86
2023/07/15 05:26:25;;;;;;;;;;;;;;;41.07;30.57;101310.13;108572;1260;124336;-86
2023/07/15 05:28:52;;;;;;;;;;;;;;;41.64;30.19;101307.11;108549;1262;64134;-83
2023/07/15 05:31:18;;;;;;;;;;;;;;;42.11;29.59;101308.09;108380;1266;125153;-85
2023/07/15 05:33:46;;;;;;;;;;;;;;;42.47;28.92;101311.55;108542;1261;59707;-84
2023/07/15 05:36:14;;;;;;;;;;;;;;;42.71;28.40;101307.25;108631;1264;66676;-84
2023/07/15 05:38:42;;;;;;;;;;;;;;;42.34;27.76;101299.58;108481;1260;124992;-84
2023/07/15 05:41:09;;;;;;;;;;;;;;;41.92;27.75;101294.74;108551;1260;62521;-84
2023/07/15 05:43:36;;;;;;;;;;;;;;;41.91;27.66;101297.56;108263;1267;124695;-85
2023/07/15 05:46:03;;;;;;;;;;;;;;;40.80;27.09;101298.88;108430;1262;59105;-85
2023/07/15 05:48:30;;;;;;;;;;;;;;;38.77;27.51;101298.83;108518;1262;74746;-85
2023/07/15 05:50:57;;;;;;;;;;;;;;;36.90;28.26;101299.14;108505;1262;124231;-84
2023/07/15 05:53:24;;;;;;;;;;;;;;;35.09;29.32;101299.20;108437;1264;62842;-84
2023/07/15 05:55:51;;;;;;;;;;;;;;;33.53;30.37;101295.04;108520;1262;124345;-84
2023/07/15 05:58:18;;;;;;;;;;;;;;;32.15;31.43;101292.50;108433;1262;59150;-84
2023/07/15 06:00:45;;;;;;;;;;;;;;;31.02;32.60;101287.93;108355;1267;66111;-84
2023/07/15 06:03:12;;;;;;;;;;;;;;;30.08;33.77;101285.02;108224;1262;124884;-84
2023/07/15 06:05:39;;;;;;;;;;;;;;;29.38;34.77;101288.57;108445;1262;70673;-85
2023/07/15 06:08:06;;;;;;;;;;;;;;;28.93;35.59;101290.20;108467;1265;124656;-85
2023/07/15 06:10:32;;;;;;;;;;;;;;;28.57;36.49;101296.01;108561;1261;60127;-84
2023/07/15 06:13:00;;;;;;;;;;;;;;;28.27;36.85;101301.01;108507;1262;124212;-84
2023/07/15 06:15:27;;;;;;;;;;;;;;;27.89;37.38;101306.30;108544;1261;66407;-85
2023/07/15 06:17:59;;;;;;;;;;;;;;;27.48;37.78;101302.92;108586;1261;71990;-85
2023/07/15 06:20:25;;;;;;;;;;;;;;;27.01;38.63;101300.08;108538;1262;124529;-84
2023/07/15 06:22:53;;;;;;;;;;;;;;;26.59;39.09;101301.64;108582;1261;60590;-84
2023/07/15 06:25:20;;;;;;;;;;;;;;;26.32;39.83;101295.67;108327;1262;124276;-84
2023/07/15 06:27:47;;;;;;;;;;;;;;;26.06;40.27;101290.73;108612;1264;66922;-85
2023/07/15 06:30:14;;;;;;;;;;;;;;;25.77;40.74;101288.33;108623;1261;73303;-84
2023/07/15 06:32:41;;;;;;;;;;;;;;;25.52;41.28;101292.48;108479;1262;124268;-85
2023/07/15 06:35:08;;;;;;;;;;;;;;;25.36;41.99;101289.15;108345;1264;59364;-85
2023/07/15 06:37:36;;;;;;;;;;;;;;;25.24;42.31;101291.83;108419;1262;124938;-85
2023/07/15 06:40:03;;;;;;;;;;;;;;;25.11;42.76;101297.70;108523;1264;66083;-85
2023/07/15 06:42:31;;;;;;;;;;;;;;;25.01;43.14;101292.96;108473;1264;72541;-85
2023/07/15 06:44:58;;;;;;;;;;;;;;;24.91;43.42;101293.56;108499;1262;124569;-85
2023/07/15 06:47:25;;;;;;;;;;;;;;;24.85;43.69;101294.25;108367;1270;59925;-85
2023/07/15 06:49:52;;;;;;;;;;;;;;;24.79;44.03;101293.34;108262;1264;124193;-85
2023/07/15 06:52:19;;;;;;;;;;;;;;;24.72;44.19;101289.02;108532;1266;65659;-85
2023/07/15 06:54:46;;;;;;;;;;;;;;;24.67;44.28;101285.56;108339;1264;71147;-85
2023/07/15 06:57:13;;;;;;;;;;;;;;;24.59;44.26;101287.92;108426;1266;123874;-85
2023/07/15 06:59:41;;;;;;;;;;;;;;;24.50;44.39;101282.73;108414;1262;59167;-85
2023/07/15 07:02:08;;;;;;;;;;;;;;;24.41;44.54;101284.54;108353;1262;124119;-84
2023/07/15 07:04:34;;;;;;;;;;;;;;;24.39;44.73;101284.05;108467;1264;65809;-84
2023/07/15 07:07:01;;;;;;;;;;;;;;;24.39;44.94;101280.66;108307;1262;124382;-85
2023/07/15 07:09:28;;;;;;;;;;;;;;;24.37;45.01;101282.33;108506;1263;59553;-85
2023/07/15 07:11:56;;;;;;;;;;;;;;;24.30;45.16;101275.50;108488;1261;59855;-87
2023/07/15 07:14:23;;;;;;;;;;;;;;;24.26;45.25;101278.09;108364;1267;124246;-86
2023/07/15 07:16:51;;;;;;;;;;;;;;;24.26;45.38;101275.57;108503;1264;67138;-86
2023/07/15 07:19:19;;;;;;;;;;;;;;;24.31;45.57;101276.90;108293;1268;124728;-85
2023/07/15 07:21:47;;;;;;;;;;;;;;;24.30;45.34;101272.98;108551;1261;59364;-86
2023/07/15 07:24:15;;;;;;;;;;;;;;;24.25;45.29;101267.89;108421;1262;59321;-86
2023/07/15 07:26:42;;;;;;;;;;;;;;;24.23;45.29;101271.50;108234;1268;124169;-86
2023/07/15 07:29:09;;;;;;;;;;;;;;;24.30;45.36;101270.65;108409;1262;65809;-86
2023/07/15 07:31:36;;;;;;;;;;;;;;;24.36;45.46;101268.73;108436;1264;124391;-86
2023/07/15 07:34:03;;;;;;;;;;;;;;;24.44;45.40;101267.63;108585;1262;59126;-85
2023/07/15 07:36:33;;;;;;;;;;;;;;;24.55;45.39;101260.75;108635;1262;59851;-85
2023/07/15 07:39:00;;;;;;;;;;;;;;;24.56;45.31;101255.15;108507;1261;124126;-85
2023/07/15 07:41:27;;;;;;;;;;;;;;;24.63;45.10;101251.39;108665;1263;67089;-85
2023/07/15 07:43:54;;;;;;;;;;;;;;;24.68;44.98;101245.70;108417;1265;124731;-85
2023/07/15 07:46:21;;;;;;;;;;;;;;;24.81;45.31;101239.60;108409;1263;59377;-85
2023/07/15 07:48:48;;;;;;;;;;;;;;;24.85;45.28;101234.12;108615;1266;59128;-84
2023/07/15 07:51:15;;;;;;;;;;;;;;;24.94;45.35;101229.39;108389;1267;124551;-84
2023/07/15 07:53:42;;;;;;;;;;;;;;;25.10;45.09;101227.17;108491;1261;67089;-85
2023/07/15 07:56:11;;;;;;;;;;;;;;;25.26;44.91;101233.17;108415;1266;124222;-85
2023/07/15 07:58:40;;;;;;;;;;;;;;;25.42;44.76;101235.63;108570;1264;59421;-85
2023/07/15 08:01:08;;;;;;;;;;;;;;;25.53;44.51;101237.98;108444;1261;124365;-84
2023/07/15 08:03:34;;;;;;;;;;;;;;;25.60;44.48;101229.34;108430;1262;74221;-85
2023/07/15 08:06:01;;;;;;;;;;;;;;;25.58;44.28;101228.14;108545;1265;67187;-85
2023/07/15 08:08:28;;;;;;;;;;;;;;;25.53;44.39;101225.08;108513;1264;124115;-85
2023/07/15 08:10:56;;;;;;;;;;;;;;;25.56;43.98;101222.48;108581;1261;59397;-85
2023/07/15 08:13:22;;;;;;;;;;;;;;;25.54;43.91;101222.36;108411;1260;124485;-85
2023/07/15 08:15:50;;;;;;;;;;;;;;;25.57;44.05;101223.69;108700;1260;74773;-85
2023/07/15 08:18:17;;;;;;;;;;;;;;;25.64;44.03;101215.73;108498;1263;66354;-85
2023/07/15 08:20:44;;;;;;;;;;;;;;;25.71;43.99;101219.14;108548;1261;124246;-85
2023/07/15 08:23:11;;;;;;;;;;;;;;;25.72;43.62;101219.11;108486;1264;59062;-85
2023/07/15 08:25:38;;;;;;;;;;;;;;;25.76;43.81;101218.79;108512;1260;124252;-85
2023/07/15 08:28:05;;;;;;;;;;;;;;;25.86;43.68;101222.44;108548;1262;72406;-85
2023/07/15 08:30:36;;;;;;;;;;;;;;;25.84;43.20;101224.86;108579;1267;66115;-85
2023/07/15 08:33:03;;;;;;;;;;;;;;;25.82;43.30;101225.27;108283;1263;124304;-85
2023/07/15 08:35:31;;;;;;;;;;;;;;;25.85;43.42;101224.64;108265;1264;59040;-86
2023/07/15 08:37:58;;;;;;;;;;;;;;;25.85;42.82;101219.06;108315;1264;124185;-85
2023/07/15 08:40:25;;;;;;;;;;;;;;;25.78;42.75;101215.48;108371;1264;73404;-85
2023/07/15 08:42:52;;;;;;;;;;;;;;;25.79;42.75;101221.21;108411;1264;67047;-85
2023/07/15 08:45:20;;;;;;;;;;;;;;;25.79;42.66;101217.28;108355;1263;124286;-85
2023/07/15 08:47:47;;;;;;;;;;;;;;;25.79;42.64;101220.16;108403;1264;59080;-85
2023/07/15 08:50:15;;;;;;;;;;;;;;;25.79;42.30;101224.10;108442;1264;124391;-85
2023/07/15 08:52:42;;;;;;;;;;;;;;;25.78;42.26;101217.14;108411;1264;74380;-85
2023/07/15 08:55:10;;;;;;;;;;;;;;;25.81;42.27;101220.65;108441;1263;66787;-85
2023/07/15 08:57:37;;;;;;;;;;;;;;;25.82;42.03;101218.45;108382;1263;72772;-85
2023/07/15 09:00:10;;;;;;;;;;;;;;;25.84;41.86;101217.15;108475;1263;59002;-85
2023/07/15 09:02:37;;;;;;;;;;;;;;;25.87;41.79;101213.60;108350;1264;125537;-85
2023/07/15 09:05:08;;;;;;;;;;;;;;;25.89;41.74;101216.24;108311;1263;74905;-85
2023/07/15 09:07:53;;;;;;;;;;;;;;;25.94;41.55;101210.91;108429;1266;125157;-85
2023/07/15 09:10:20;;;;;;;;;;;;;;;25.96;41.39;101211.55;108501;1264;71564;-85
2023/07/15 09:12:51;;;;;;;;;;;;;;;26.02;41.04;101211.23;108355;1263;59404;-85
2023/07/15 09:15:18;;;;;;;;;;;;;;;26.02;40.70;101213.01;108243;1264;124567;-86
2023/07/15 09:17:55;;;;;;;;;;;;;;;25.99;40.75;101217.55;108403;1263;74721;-86
2023/07/15 09:20:22;;;;;;;;;;;;;;;26.04;40.82;101212.39;108408;1264;124360;-86
2023/07/15 09:22:56;;;;;;;;;;;;;;;26.11;40.96;101210.91;108471;1264;70272;-85
2023/07/15 09:25:23;;;;;;;;;;;;;;;26.17;40.76;101212.67;108407;1264;124272;-86
2023/07/15 09:27:50;;;;;;;;;;;;;;;26.21;40.61;101210.20;108361;1263;59326;-86
2023/07/15 09:30:17;;;;;;;;;;;;;;;26.25;40.65;101205.23;108411;1263;73334;-86
2023/07/15 09:32:44;;;;;;;;;;;;;;;26.29;40.33;101199.87;108370;1261;124673;-86
2023/07/15 09:35:13;;;;;;;;;;;;;;;26.31;40.30;101198.73;108598;1261;70618;-85
2023/07/15 09:37:40;;;;;;;;;;;;;;;26.34;40.05;101195.94;108438;1264;124840;-86
2023/07/15 09:40:08;;;;;;;;;;;;;;;26.37;39.72;101188.44;108467;1264;59186;-85
2023/07/15 09:42:54;;;;;;;;;;;;;;;26.38;39.57;101177.81;108573;1260;73518;-85
2023/07/15 09:45:31;;;;;;;;;;;;;;;26.46;39.75;101175.92;108401;1260;124425;-86
2023/07/15 09:47:59;;;;;;;;;;;;;;;26.52;39.50;101172.10;108515;1261;73577;-86
2023/07/15 09:50:26;;;;;;;;;;;;;;;26.62;39.68;101173.05;108604;1260;124106;-85
2023/07/15 09:52:54;;;;;;;;;;;;;;;26.71;39.56;101167.48;108697;1262;59085;-85
2023/07/15 09:55:21;;;;;;;;;;;;;;;26.80;39.44;101162.70;108388;1263;124355;-85
2023/07/15 09:57:49;;;;;;;;;;;;;;;26.87;39.13;101156.50;108512;1261;67072;-86
2023/07/15 10:00:17;;;;;;;;;;;;;;;26.88;38.82;101155.91;108480;1260;72451;-86
2023/07/15 10:02:46;;;;;;;;;;;;;;;26.93;38.67;101151.42;108309;1267;124153;-85
2023/07/15 10:05:13;;;;;;;;;;;;;;;27.01;38.57;101143.94;108470;1262;60168;-85
2023/07/15 10:07:40;;;;;;;;;;;;;;;27.08;38.68;101142.74;108346;1260;124489;-86
2023/07/15 10:10:08;;;;;;;;;;;;;;;27.21;38.49;101141.73;108390;1262;66923;-86
2023/07/15 10:12:35;;;;;;;;;;;;;;;27.31;38.23;101142.63;108460;1260;73187;-86
2023/07/15 10:15:02;;;;;;;;;;;;;;;27.40;37.79;101141.38;108385;1262;124253;-85
2023/07/15 10:17:32;;;;;;;;;;;;;;;27.49;38.02;101143.00;108356;1260;59963;-85
2023/07/15 10:20:03;;;;;;;;;;;;;;;27.60;37.67;101147.08;108372;1267;124960;-86
2023/07/15 10:22:34;;;;;;;;;;;;;;;27.64;37.30;101153.95;108604;1260;65543;-85
2023/07/15 10:25:01;;;;;;;;;;;;;;;27.65;37.08;101152.66;108502;1261;72671;-85
2023/07/15 10:27:29;;;;;;;;;;;;;;;27.67;36.94;101148.98;108394;1263;59388;-85
2023/07/15 10:30:15;;;;;;;;;;;;;;;27.67;36.88;101149.48;108464;1264;59218;-86
2023/07/15 10:33:00;;;;;;;;;;;;;;;27.70;36.66;101148.11;108539;1261;124071;-86
2023/07/15 10:35:28;;;;;;;;;;;;;;;27.72;36.74;101145.17;108659;1260;67557;-85
2023/07/15 10:37:56;;;;;;;;;;;;;;;27.75;36.74;101140.36;108371;1260;124946;-86
2023/07/15 10:40:37;;;;;;;;;;;;;;;27.80;36.78;101135.11;108439;1260;59381;-86
2023/07/15 10:43:06;;;;;;;;;;;;;;;27.87;36.61;101134.27;108306;1264;124187;-85
2023/07/15 10:45:34;;;;;;;;;;;;;;;27.93;36.48;101126.86;108420;1260;73436;-86
2023/07/15 10:48:06;;;;;;;;;;;;;;;27.99;36.48;101121.91;108497;1260;67576;-85
2023/07/15 10:50:33;;;;;;;;;;;;;;;28.06;36.40;101116.73;108172;1261;421039;-85
2023/07/15 10:53:21;;;;;;;;;;;;;;;28.11;36.35;101110.39;108421;1260;59020;-85
2023/07/15 10:55:58;;;;;;;;;;;;;;;28.18;35.98;101111.18;108468;1260;124522;-84
2023/07/15 10:58:26;;;;;;;;;;;;;;;28.20;35.60;101104.23;108465;1260;73397;-85
2023/07/15 11:00:57;;;;;;;;;;;;;;;28.23;35.57;101106.64;108578;1260;66427;-85
2023/07/15 11:03:24;;;;;;;;;;;;;;;28.24;35.37;101105.50;108424;1260;124770;-86
2023/07/15 11:05:51;;;;;;;;;;;;;;;28.28;35.62;101103.19;108446;1261;59194;-85
2023/07/15 11:08:19;;;;;;;;;;;;;;;28.33;35.56;101095.58;108489;1260;124793;-84
2023/07/15 11:10:46;;;;;;;;;;;;;;;28.39;35.66;101098.89;108435;1262;74080;-85
2023/07/15 11:13:14;;;;;;;;;;;;;;;28.45;35.72;101095.02;108382;1264;124675;-85
2023/07/15 11:15:41;;;;;;;;;;;;;;;28.51;35.67;101089.36;108251;1262;73666;-85
2023/07/15 11:18:17;;;;;;;;;;;;;;;28.54;35.42;101090.19;108594;1260;59168;-85
2023/07/15 11:20:48;;;;;;;;;;;;;;;28.55;35.34;101086.84;108383;1260;124430;-84
2023/07/15 11:23:15;;;;;;;;;;;;;;;28.56;35.24;101082.12;108494;1260;74467;-85
2023/07/15 11:25:42;;;;;;;;;;;;;;;28.55;35.20;101081.44;108379;1260;124388;-84
2023/07/15 11:28:09;;;;;;;;;;;;;;;28.55;35.12;101080.02;108454;1262;71166;-84
2023/07/15 11:30:40;;;;;;;;;;;;;;;28.54;35.20;101080.94;108435;1260;59354;-85
2023/07/15 11:33:08;;;;;;;;;;;;;;;28.58;35.27;101086.39;108323;1262;124130;-85
2023/07/15 11:35:35;;;;;;;;;;;;;;;28.60;35.04;101084.45;108440;1264;73212;-85
2023/07/15 11:38:06;;;;;;;;;;;;;;;28.61;34.83;101083.91;108288;1262;124397;-85
2023/07/15 11:40:52;;;;;;;;;;;;;;;28.63;34.79;101086.88;108436;1262;72658;-85
2023/07/15 11:43:19;;;;;;;;;;;;;;;28.66;34.88;101085.80;108479;1262;124471;-84
2023/07/15 11:45:47;;;;;;;;;;;;;;;28.69;34.64;101082.98;108412;1264;60070;-85
2023/07/15 11:48:24;;;;;;;;;;;;;;;28.70;34.48;101081.33;108506;1262;74701;-85
2023/07/15 11:50:51;;;;;;;;;;;;;;;28.71;34.44;101063.41;108316;1262;124712;-85
2023/07/15 11:53:31;;;;;;;;;;;;;;;28.73;34.58;101060.40;108448;1262;63486;-85
2023/07/15 11:55:58;;;;;;;;;;;;;;;28.75;34.23;101058.88;108477;1264;124300;-85
2023/07/15 11:58:45;;;;;;;;;;;;;;;28.74;33.99;101051.86;108593;1263;60141;-85
2023/07/15 12:01:13;;;;;;;;;;;;;;;28.75;34.36;101048.06;108414;1262;124825;-85
2023/07/15 12:03:40;;;;;;;;;;;;;;;28.75;34.20;101050.38;108395;1262;66797;-85
2023/07/15 12:06:14;;;;;;;;;;;;;;;28.75;34.34;101040.84;108374;1262;73085;-85
2023/07/15 12:08:41;;;;;;;;;;;;;;;28.80;34.86;101045.60;108483;1264;124583;-85
2023/07/15 12:11:09;;;;;;;;;;;;;;;28.91;34.78;101050.75;108523;1262;59301;-85
2023/07/15 12:13:36;;;;;;;;;;;;;;;28.97;34.56;101049.53;108376;1264;124561;-85
2023/07/15 12:16:04;;;;;;;;;;;;;;;29.00;34.46;101045.58;108384;1262;67119;-85
2023/07/15 12:18:31;;;;;;;;;;;;;;;29.03;34.32;101041.14;108305;1262;71578;-84
2023/07/15 12:20:58;;;;;;;;;;;;;;;29.05;34.52;101039.73;108485;1262;124648;-85
2023/07/15 12:23:25;;;;;;;;;;;;;;;29.08;34.42;101035.47;108473;1262;60226;-85
2023/07/15 12:25:52;;;;;;;;;;;;;;;29.11;34.59;101033.15;108327;1262;125055;-85
2023/07/15 12:28:19;;;;;;;;;;;;;;;29.12;34.47;101031.11;108470;1262;65821;-85